createdAt,value
2022-12-11T00:00:23.773Z,99017.84
2022-12-11T00:02:51.111Z,99022.34
2022-12-11T00:05:18.137Z,99037.38
2022-12-11T00:07:45.184Z,99043.41
2022-12-11T00:10:12.212Z,99044.19
2022-12-11T00:12:39.995Z,99034.53
2022-12-11T00:15:07.894Z,99030.75
2022-12-11T00:17:35.491Z,99025.94
2022-12-11T00:20:02.557Z,99024.59
2022-12-11T00:22:30.982Z,99008.03
2022-12-11T00:24:57.921Z,99007.53
2022-12-11T00:27:25.450Z,99023.94
2022-12-11T00:29:52.476Z,99018.78
2022-12-11T00:32:19.702Z,99016.56
2022-12-11T00:34:46.686Z,99019.88
2022-12-11T00:37:13.792Z,99022.22
2022-12-11T00:39:40.830Z,99017.84
2022-12-11T00:42:08.842Z,99017.44
2022-12-11T00:44:35.986Z,99001.81
2022-12-11T00:47:03.549Z,99013.34
2022-12-11T00:49:30.628Z,99014.22
2022-12-11T00:51:57.685Z,99002.44
2022-12-11T00:54:24.751Z,99021.91
2022-12-11T00:56:51.889Z,99032.28
2022-12-11T00:59:20.126Z,99023.88
2022-12-11T01:01:47.229Z,99024.31
2022-12-11T01:04:14.328Z,99041.53
2022-12-11T01:06:41.294Z,99036.44
2022-12-11T01:09:26.885Z,99054.25
2022-12-11T01:11:54.020Z,99045.16
2022-12-11T01:14:21.048Z,99051.16
2022-12-11T01:16:48.121Z,99050.97
2022-12-11T01:19:15.456Z,99034.47
2022-12-11T01:21:42.441Z,99058.09
2022-12-11T01:24:09.411Z,99066.22
2022-12-11T01:26:36.436Z,99057.13
2022-12-11T01:29:03.901Z,99039.69
2022-12-11T01:31:31.175Z,99031.88
2022-12-11T01:33:58.183Z,99040.13
2022-12-11T01:36:25.260Z,99046.41
2022-12-11T01:38:54.417Z,99038.84
2022-12-11T01:41:22.060Z,99030.03
2022-12-11T01:44:15.409Z,99038.09
2022-12-11T01:46:43.320Z,99038.09
2022-12-11T01:49:13.133Z,99039.56
2022-12-11T01:51:45.342Z,99045.25
2022-12-11T01:54:15.100Z,99039.22
2022-12-11T01:56:45.213Z,99043.00
2022-12-11T01:59:15.742Z,99056.56
2022-12-11T02:01:51.306Z,99043.25
2022-12-11T02:04:19.936Z,99035.00
2022-12-11T02:06:49.501Z,99049.19
2022-12-11T02:09:24.351Z,99051.44
2022-12-11T02:12:23.272Z,99036.75
2022-12-11T02:14:56.549Z,99054.78
2022-12-11T02:17:29.779Z,99055.16
2022-12-11T02:20:12.275Z,99062.63
2022-12-11T02:23:13.055Z,99057.88
2022-12-11T02:25:57.608Z,99064.28
2022-12-11T02:28:42.583Z,99061.22
2022-12-11T02:31:49.687Z,99068.63
2022-12-11T02:34:43.459Z,99075.97
2022-12-11T02:37:19.228Z,99095.66
2022-12-11T02:39:49.656Z,99097.53
2022-12-11T02:42:18.462Z,99087.50
2022-12-11T02:44:53.212Z,99107.13
2022-12-11T02:47:21.556Z,99095.50
2022-12-11T02:49:50.479Z,99098.34
2022-12-11T02:52:21.852Z,99107.66
2022-12-11T02:54:52.411Z,99089.53
2022-12-11T02:57:36.130Z,99105.63
2022-12-11T03:00:04.447Z,99104.91
2022-12-11T03:02:31.710Z,99108.13
2022-12-11T03:04:59.781Z,99112.72
2022-12-11T03:07:31.778Z,99106.13
2022-12-11T03:09:58.863Z,99116.16
2022-12-11T03:12:29.719Z,99129.69
2022-12-11T03:15:00.852Z,99121.22
2022-12-11T03:17:35.631Z,99126.16
2022-12-11T03:20:30.551Z,99125.16
2022-12-11T03:23:18.820Z,99134.16
2022-12-11T03:25:59.731Z,99130.38
2022-12-11T03:28:34.010Z,99137.13
2022-12-11T03:31:09.082Z,99138.91
2022-12-11T03:33:47.761Z,99140.38
2022-12-11T03:36:26.132Z,99144.44
2022-12-11T03:39:15.484Z,99150.69
2022-12-11T03:41:45.593Z,99152.22
2022-12-11T03:44:13.823Z,99153.19
2022-12-11T03:46:43.633Z,99148.44
2022-12-11T03:49:17.946Z,99156.72
2022-12-11T03:51:48.459Z,99166.72
2022-12-11T03:54:16.587Z,99169.22
2022-12-11T03:56:45.881Z,99164.72
2022-12-11T03:59:13.068Z,99164.50
2022-12-11T04:01:40.145Z,99169.81
2022-12-11T04:04:07.210Z,99182.59
2022-12-11T04:06:34.225Z,99168.16
2022-12-11T04:09:01.266Z,99176.34
2022-12-11T04:11:37.201Z,99170.19
2022-12-11T04:14:28.416Z,99179.03
2022-12-11T04:16:55.866Z,99189.81
2022-12-11T04:19:42.579Z,99188.38
2022-12-11T04:22:32.232Z,99198.97
2022-12-11T04:25:00.024Z,99193.00
2022-12-11T04:27:46.114Z,99200.19
2022-12-11T04:30:16.342Z,99188.84
2022-12-11T04:32:43.434Z,99203.94
2022-12-11T04:35:12.059Z,99201.94
2022-12-11T04:37:39.595Z,99207.50
2022-12-11T04:40:09.683Z,99206.34
2022-12-11T04:42:36.708Z,99201.59
2022-12-11T04:45:05.423Z,99202.78
2022-12-11T04:47:32.419Z,99206.31
2022-12-11T04:49:59.359Z,99192.63
2022-12-11T04:52:26.325Z,99207.63
2022-12-11T04:54:53.267Z,99203.50
2022-12-11T04:57:21.685Z,99203.59
2022-12-11T04:59:49.067Z,99209.84
2022-12-11T05:02:16.813Z,99207.50
2022-12-11T05:04:43.777Z,99197.59
2022-12-11T05:07:10.750Z,99211.75
2022-12-11T05:09:37.727Z,99204.19
2022-12-11T05:12:04.800Z,99190.03
2022-12-11T05:14:32.600Z,99202.56
2022-12-11T05:16:59.985Z,99191.88
2022-12-11T05:19:30.580Z,99198.28
2022-12-11T05:21:57.591Z,99204.75
2022-12-11T05:24:34.100Z,99230.50
2022-12-11T05:27:03.861Z,99224.47
2022-12-11T05:29:30.852Z,99230.84
2022-12-11T05:32:07.952Z,99233.19
2022-12-11T05:34:34.984Z,99230.81
2022-12-11T05:37:02.320Z,99221.38
2022-12-11T05:39:39.148Z,99242.38
2022-12-11T05:42:08.828Z,99249.25
2022-12-11T05:44:38.230Z,99243.09
2022-12-11T05:47:05.203Z,99267.44
2022-12-11T05:49:32.243Z,99279.97
2022-12-11T05:51:59.237Z,99285.06
2022-12-11T05:54:26.265Z,99267.66
2022-12-11T05:56:53.445Z,99297.69
2022-12-11T05:59:20.529Z,99304.59
2022-12-11T06:01:47.689Z,99312.84
2022-12-11T06:04:14.793Z,99306.47
2022-12-11T06:06:43.890Z,99297.25
2022-12-11T06:09:16.671Z,99307.50
2022-12-11T06:11:43.752Z,99322.75
2022-12-11T06:14:11.673Z,99322.31
2022-12-11T06:16:38.907Z,99325.16
2022-12-11T06:19:05.972Z,99317.09
2022-12-11T06:21:33.997Z,99343.63
2022-12-11T06:24:03.622Z,99352.72
2022-12-11T06:26:32.215Z,99339.03
2022-12-11T06:28:59.879Z,99343.53
2022-12-11T06:31:27.215Z,99326.91
2022-12-11T06:33:54.733Z,99361.94
2022-12-11T06:36:23.378Z,99357.41
2022-12-11T06:38:50.627Z,99357.16
2022-12-11T06:41:17.857Z,99367.50
2022-12-11T06:43:45.138Z,99355.81
2022-12-11T06:46:15.244Z,99352.22
2022-12-11T06:48:42.820Z,99337.41
2022-12-11T06:51:12.893Z,99350.81
2022-12-11T06:53:40.365Z,99354.56
2022-12-11T06:56:10.803Z,99358.28
2022-12-11T06:58:38.969Z,99353.94
2022-12-11T07:01:16.337Z,99338.19
2022-12-11T07:03:43.793Z,99356.56
2022-12-11T07:06:15.917Z,99359.88
2022-12-11T07:08:43.837Z,99353.56
2022-12-11T07:11:14.226Z,99370.81
2022-12-11T07:13:42.324Z,99366.81
2022-12-11T07:16:11.435Z,99353.75
2022-12-11T07:18:40.692Z,99364.41
2022-12-11T07:21:08.564Z,99384.72
2022-12-11T07:23:36.020Z,99381.38
2022-12-11T07:26:08.148Z,99373.13
2022-12-11T07:28:35.756Z,99389.00
2022-12-11T07:31:11.339Z,99388.25
2022-12-11T07:33:38.497Z,99373.06
2022-12-11T07:36:08.280Z,99375.56
2022-12-11T07:38:35.283Z,99393.97
2022-12-11T07:41:03.300Z,99396.34
2022-12-11T07:43:30.278Z,99395.84
2022-12-11T07:46:08.487Z,99397.72
2022-12-11T07:48:37.931Z,99390.66
2022-12-11T07:51:15.138Z,99376.28
2022-12-11T07:53:49.238Z,99388.50
2022-12-11T07:56:17.753Z,99386.84
2022-12-11T07:58:45.447Z,99372.84
2022-12-11T08:01:33.569Z,99388.34
2022-12-11T08:04:00.808Z,99391.34
2022-12-11T08:06:30.484Z,99408.53
2022-12-11T08:08:59.319Z,99410.66
2022-12-11T08:11:26.870Z,99412.41
2022-12-11T08:13:54.708Z,99416.41
2022-12-11T08:16:22.351Z,99412.31
2022-12-11T08:18:49.449Z,99415.75
2022-12-11T08:21:21.196Z,99418.47
2022-12-11T08:23:49.286Z,99412.72
2022-12-11T08:26:22.512Z,99409.03
2022-12-11T08:28:49.529Z,99397.63
2022-12-11T08:31:18.011Z,99408.31
2022-12-11T08:33:50.780Z,99429.41
2022-12-11T08:36:24.011Z,99424.16
2022-12-11T08:38:52.215Z,99428.84
2022-12-11T08:41:21.970Z,99436.69
2022-12-11T08:43:49.642Z,99428.97
2022-12-11T08:46:16.774Z,99431.88
2022-12-11T08:48:44.218Z,99451.22
2022-12-11T08:51:13.722Z,99441.59
2022-12-11T08:53:41.146Z,99429.56
2022-12-11T08:56:11.043Z,99443.63
2022-12-11T08:58:38.691Z,99452.97
2022-12-11T09:01:10.966Z,99453.47
2022-12-11T09:03:38.686Z,99454.94
2022-12-11T09:06:16.706Z,99460.59
2022-12-11T09:08:51.691Z,99462.00
2022-12-11T09:11:23.029Z,99459.91
2022-12-11T09:13:50.738Z,99461.81
2022-12-11T09:16:20.526Z,99461.31
2022-12-11T09:18:49.215Z,99460.84
2022-12-11T09:21:19.391Z,99453.88
2022-12-11T09:23:46.861Z,99463.75
2022-12-11T09:26:17.407Z,99462.66
2022-12-11T09:28:46.921Z,99459.50
2022-12-11T09:31:17.488Z,99465.91
2022-12-11T09:33:45.576Z,99472.03
2022-12-11T09:36:12.800Z,99468.00
2022-12-11T09:38:40.058Z,99470.53
2022-12-11T09:41:22.141Z,99488.22
2022-12-11T09:44:12.132Z,99486.91
2022-12-11T09:46:41.054Z,99496.56
2022-12-11T09:49:22.220Z,99493.13
2022-12-11T09:52:17.460Z,99498.75
2022-12-11T09:54:52.777Z,99498.84
2022-12-11T09:57:19.697Z,99488.31
2022-12-11T10:00:14.014Z,99505.75
2022-12-11T10:03:07.335Z,99523.41
2022-12-11T10:06:04.851Z,99518.72
2022-12-11T10:08:54.891Z,99522.47
2022-12-11T10:11:58.658Z,99516.38
2022-12-11T10:14:39.989Z,99483.59
2022-12-11T10:17:16.144Z,99492.97
2022-12-11T10:19:43.452Z,99505.31
2022-12-11T10:22:23.212Z,99492.16
2022-12-11T10:25:15.540Z,99492.78
2022-12-11T10:27:43.606Z,99499.59
2022-12-11T10:30:16.184Z,99495.88
2022-12-11T10:32:43.129Z,99480.81
2022-12-11T10:35:18.633Z,99484.38
2022-12-11T10:37:45.693Z,99490.06
2022-12-11T10:40:13.480Z,99501.22
2022-12-11T10:42:45.544Z,99493.81
2022-12-11T10:45:16.285Z,99496.94
2022-12-11T10:47:43.295Z,99506.34
2022-12-11T10:50:24.277Z,99506.38
2022-12-11T10:52:52.803Z,99501.94
2022-12-11T10:55:29.363Z,99502.19
2022-12-11T10:58:05.514Z,99495.41
2022-12-11T11:01:18.630Z,99485.66
2022-12-11T11:04:19.217Z,99491.50
2022-12-11T11:06:46.813Z,99484.75
2022-12-11T11:09:36.509Z,99481.06
2022-12-11T11:12:07.902Z,99479.34
2022-12-11T11:14:35.281Z,99479.34
2022-12-11T11:17:02.335Z,99479.63
2022-12-11T11:19:35.157Z,99477.72
2022-12-11T11:22:14.307Z,99467.78
2022-12-11T11:24:57.096Z,99480.78
2022-12-11T11:27:37.469Z,99481.84
2022-12-11T11:30:18.732Z,99471.03
2022-12-11T11:32:46.087Z,99472.63
2022-12-11T11:35:13.412Z,99475.72
2022-12-11T11:37:44.672Z,99462.94
2022-12-11T11:40:25.752Z,99460.22
2022-12-11T11:42:59.126Z,99469.41
2022-12-11T11:45:40.867Z,99477.13
2022-12-11T11:48:29.084Z,99478.69
2022-12-11T11:50:58.115Z,99478.72
2022-12-11T11:53:37.383Z,99481.44
2022-12-11T11:56:26.333Z,99476.78
2022-12-11T11:58:56.459Z,99486.81
2022-12-11T12:01:24.262Z,99484.28
2022-12-11T12:03:52.540Z,99483.56
2022-12-11T12:06:37.253Z,99483.00
2022-12-11T12:09:08.958Z,99479.38
2022-12-11T12:11:57.942Z,99490.41
2022-12-11T12:14:52.443Z,99485.03
2022-12-11T12:17:44.761Z,99477.97
2022-12-11T12:20:46.932Z,99492.72
2022-12-11T12:23:22.788Z,99487.94
2022-12-11T12:26:09.211Z,99496.31
2022-12-11T12:28:45.504Z,99501.28
2022-12-11T12:31:18.595Z,99503.97
2022-12-11T12:34:04.173Z,99514.38
2022-12-11T12:36:43.916Z,99513.53
2022-12-11T12:39:16.830Z,99514.88
2022-12-11T12:42:07.525Z,99508.94
2022-12-11T12:44:42.593Z,99505.84
2022-12-11T12:47:15.382Z,99502.53
2022-12-11T12:49:46.565Z,99504.09
2022-12-11T12:52:25.447Z,99506.56
2022-12-11T12:55:16.590Z,99499.09
2022-12-11T12:57:48.533Z,99503.06
2022-12-11T13:00:31.603Z,99490.69
2022-12-11T13:03:01.920Z,99494.00
2022-12-11T13:05:34.572Z,99505.94
2022-12-11T13:08:04.640Z,99490.06
2022-12-11T13:10:36.915Z,99475.13
2022-12-11T13:13:06.269Z,99496.91
2022-12-11T13:15:43.986Z,99490.97
2022-12-11T13:18:34.160Z,99495.28
2022-12-11T13:21:02.916Z,99495.03
2022-12-11T13:23:35.046Z,99490.03
2022-12-11T13:26:04.572Z,99470.50
2022-12-11T13:28:43.477Z,99473.09
2022-12-11T13:31:16.530Z,99466.16
2022-12-11T13:33:50.978Z,99462.31
2022-12-11T13:36:22.912Z,99454.06
2022-12-11T13:38:56.728Z,99455.19
2022-12-11T13:41:24.149Z,99458.22
2022-12-11T13:43:52.464Z,99448.34
2022-12-11T13:46:31.346Z,99434.63
2022-12-11T13:49:02.314Z,99428.59
2022-12-11T13:51:32.170Z,99422.19
2022-12-11T13:54:21.662Z,99436.31
2022-12-11T13:56:59.122Z,99436.28
2022-12-11T13:59:35.254Z,99432.78
2022-12-11T14:02:29.679Z,99442.47
2022-12-11T14:05:00.340Z,99431.63
2022-12-11T14:07:33.362Z,99415.88
2022-12-11T14:10:09.844Z,99430.81
2022-12-11T14:12:37.517Z,99433.97
2022-12-11T14:15:05.484Z,99402.81
2022-12-11T14:17:35.480Z,99406.53
2022-12-11T14:20:07.472Z,99407.91
2022-12-11T14:22:34.594Z,99410.00
2022-12-11T14:25:03.792Z,99403.09
2022-12-11T14:27:31.523Z,99397.28
2022-12-11T14:29:58.514Z,99399.66
2022-12-11T14:32:35.240Z,99395.63
2022-12-11T14:35:05.974Z,99408.91
2022-12-11T14:37:36.610Z,99390.09
2022-12-11T14:40:07.319Z,99393.16
2022-12-11T14:42:40.310Z,99408.84
2022-12-11T14:45:21.974Z,99417.94
2022-12-11T14:47:51.729Z,99419.75
2022-12-11T14:50:23.668Z,99435.31
2022-12-11T14:52:59.792Z,99423.16
2022-12-11T14:55:30.880Z,99407.47
2022-12-11T14:57:59.186Z,99405.16
2022-12-11T15:00:33.220Z,99385.22
2022-12-11T15:03:05.731Z,99402.94
2022-12-11T15:05:40.327Z,99400.94
2022-12-11T15:08:10.942Z,99409.69
2022-12-11T15:10:41.742Z,99382.91
2022-12-11T15:13:10.204Z,99386.59
2022-12-11T15:15:47.849Z,99382.72
2022-12-11T15:18:51.076Z,99377.28
2022-12-11T15:21:19.320Z,99366.03
2022-12-11T15:23:55.824Z,99339.06
2022-12-11T15:26:40.100Z,99339.66
2022-12-11T15:29:32.599Z,99334.81
2022-12-11T15:32:18.627Z,99317.94
2022-12-11T15:34:48.841Z,99309.84
2022-12-11T15:37:24.678Z,99301.63
2022-12-11T15:39:53.816Z,99272.16
2022-12-11T15:42:41.923Z,99290.97
2022-12-11T15:45:16.784Z,99285.44
2022-12-11T15:47:44.738Z,99293.00
2022-12-11T15:50:19.811Z,99294.06
2022-12-11T15:52:47.023Z,99283.72
2022-12-11T15:55:14.898Z,99307.47
2022-12-11T15:57:46.959Z,99314.81
2022-12-11T16:00:14.761Z,99319.34
2022-12-11T16:02:41.817Z,99324.09
2022-12-11T16:05:09.776Z,99322.03
2022-12-11T16:07:37.021Z,99298.16
2022-12-11T16:10:04.948Z,99292.13
2022-12-11T16:12:32.559Z,99282.97
2022-12-11T16:14:59.624Z,99267.94
2022-12-11T16:17:26.884Z,99272.91
2022-12-11T16:19:54.283Z,99269.97
2022-12-11T16:22:21.260Z,99280.34
2022-12-11T16:24:48.289Z,99269.81
2022-12-11T16:27:22.949Z,99257.56
2022-12-11T16:29:51.201Z,99228.00
2022-12-11T16:32:20.235Z,99240.56
2022-12-11T16:34:47.312Z,99234.34
2022-12-11T16:37:14.483Z,99245.34
2022-12-11T16:39:42.997Z,99232.84
2022-12-11T16:42:10.024Z,99241.38
2022-12-11T16:44:42.391Z,99250.53
2022-12-11T16:47:10.885Z,99248.47
2022-12-11T16:49:38.128Z,99242.78
2022-12-11T16:52:05.235Z,99237.03
2022-12-11T16:54:32.241Z,99247.97
2022-12-11T16:56:59.248Z,99237.97
2022-12-11T16:59:26.348Z,99229.78
2022-12-11T17:01:53.453Z,99223.50
2022-12-11T17:04:20.456Z,99219.97
2022-12-11T17:06:47.521Z,99215.53
2022-12-11T17:09:14.489Z,99220.34
2022-12-11T17:11:41.489Z,99186.19
2022-12-11T17:14:10.139Z,99195.41
2022-12-11T17:16:37.140Z,99191.59
2022-12-11T17:19:07.325Z,99167.16
2022-12-11T17:21:34.400Z,99165.25
2022-12-11T17:24:01.500Z,99166.38
2022-12-11T17:26:29.296Z,99132.94
2022-12-11T17:28:59.565Z,99118.56
2022-12-11T17:31:27.462Z,99132.22
2022-12-11T17:33:54.546Z,99132.41
2022-12-11T17:36:40.301Z,99118.31
2022-12-11T17:39:07.296Z,99114.31
2022-12-11T17:41:34.255Z,99106.13
2022-12-11T17:44:01.300Z,99105.59
2022-12-11T17:46:28.319Z,99089.06
2022-12-11T17:48:56.493Z,99091.97
2022-12-11T17:51:26.190Z,99107.28
2022-12-11T17:53:55.802Z,99115.97
2022-12-11T17:56:24.017Z,99110.81
2022-12-11T17:58:51.271Z,99121.19
2022-12-11T18:01:18.528Z,99129.38
2022-12-11T18:03:45.884Z,99113.56
2022-12-11T18:06:15.598Z,99104.50
2022-12-11T18:08:44.539Z,99114.03
2022-12-11T18:11:17.416Z,99099.75
2022-12-11T18:13:45.973Z,99061.28
2022-12-11T18:16:17.513Z,99053.28
2022-12-11T18:18:46.469Z,99044.31
2022-12-11T18:21:20.911Z,99048.13
2022-12-11T18:23:49.832Z,99042.47
2022-12-11T18:26:18.676Z,99075.03
2022-12-11T18:28:46.696Z,99090.38
2022-12-11T18:31:14.225Z,99066.53
2022-12-11T18:33:43.498Z,99057.09
2022-12-11T18:36:12.965Z,99079.06
2022-12-11T18:38:42.218Z,99071.38
2022-12-11T18:41:17.369Z,99088.00
2022-12-11T18:43:44.611Z,99100.28
2022-12-11T18:46:14.538Z,99132.66
2022-12-11T18:48:43.364Z,99124.88
2022-12-11T18:51:13.218Z,99118.94
2022-12-11T18:53:40.690Z,99098.19
2022-12-11T18:56:16.426Z,99097.72
2022-12-11T18:58:45.481Z,99116.34
2022-12-11T19:01:17.789Z,99112.56
2022-12-11T19:03:45.496Z,99069.59
2022-12-11T19:06:18.289Z,99083.78
2022-12-11T19:08:45.689Z,99049.09
2022-12-11T19:11:21.812Z,99072.91
2022-12-11T19:13:50.044Z,99068.22
2022-12-11T19:16:20.305Z,99066.78
2022-12-11T19:18:47.392Z,99050.50
2022-12-11T19:21:15.673Z,99047.44
2022-12-11T19:23:43.861Z,99055.94
2022-12-11T19:26:17.370Z,99053.81
2022-12-11T19:28:45.296Z,99043.41
2022-12-11T19:31:15.387Z,99053.22
2022-12-11T19:33:43.474Z,99045.03
2022-12-11T19:36:13.717Z,99054.38
2022-12-11T19:38:42.107Z,99041.75
2022-12-11T19:41:29.627Z,99055.19
2022-12-11T19:43:58.152Z,99047.44
2022-12-11T19:46:26.308Z,99043.84
2022-12-11T19:48:55.260Z,99049.00
2022-12-11T19:51:25.626Z,99035.09
2022-12-11T19:53:53.451Z,99043.81
2022-12-11T19:56:20.932Z,99043.28
2022-12-11T19:58:48.744Z,99043.84
2022-12-11T20:01:28.847Z,99040.72
2022-12-11T20:04:02.197Z,99022.38
2022-12-11T20:06:31.828Z,99030.41
2022-12-11T20:09:00.093Z,99018.69
2022-12-11T20:11:27.292Z,99028.50
2022-12-11T20:13:57.184Z,99021.38
2022-12-11T20:16:53.273Z,99019.50
2022-12-11T20:19:11.556Z,99024.00
2022-12-11T20:21:38.567Z,99014.66
2022-12-11T20:24:06.045Z,99002.81
2022-12-11T20:26:36.107Z,99009.81
2022-12-11T20:29:07.424Z,99005.41
2022-12-11T20:31:37.000Z,99005.41
2022-12-11T20:34:05.177Z,98998.00
2022-12-11T20:36:33.121Z,98986.69
2022-12-11T20:39:00.503Z,98972.94
2022-12-11T20:41:28.137Z,98950.84
2022-12-11T20:43:55.575Z,98956.16
2022-12-11T20:46:27.912Z,98966.97
2022-12-11T20:48:58.534Z,98958.13
2022-12-11T20:51:26.588Z,98960.38
2022-12-11T20:53:59.533Z,98965.00
2022-12-11T20:56:30.010Z,98968.38
2022-12-11T20:58:58.353Z,98954.38
2022-12-11T21:01:28.669Z,98945.44
2022-12-11T21:03:56.051Z,98935.78
2022-12-11T21:06:32.113Z,98930.97
2022-12-11T21:09:00.759Z,98932.97
2022-12-11T21:11:28.325Z,98918.47
2022-12-11T21:13:55.698Z,98931.03
2022-12-11T21:16:23.176Z,98924.25
2022-12-11T21:18:50.552Z,98921.91
2022-12-11T21:21:17.728Z,98923.44
2022-12-11T21:23:45.153Z,98916.19
2022-12-11T21:26:12.834Z,98916.13
2022-12-11T21:28:40.342Z,98909.75
2022-12-11T21:31:11.222Z,98894.72
2022-12-11T21:33:38.317Z,98891.66
2022-12-11T21:36:06.606Z,98885.06
2022-12-11T21:38:33.998Z,98887.72
2022-12-11T21:41:13.762Z,98900.34
2022-12-11T21:44:00.460Z,98888.00
2022-12-11T21:46:29.902Z,98871.63
2022-12-11T21:48:56.938Z,98860.38
2022-12-11T21:51:32.422Z,98850.03
2022-12-11T21:54:03.416Z,98844.81
2022-12-11T21:56:31.790Z,98852.22
2022-12-11T21:58:59.124Z,98854.38
2022-12-11T22:01:33.689Z,98843.84
2022-12-11T22:04:01.189Z,98826.78
2022-12-11T22:06:28.562Z,98826.00
2022-12-11T22:08:55.664Z,98810.44
2022-12-11T22:11:26.305Z,98813.44
2022-12-11T22:13:53.789Z,98804.13
2022-12-11T22:16:21.173Z,98799.75
2022-12-11T22:18:48.298Z,98778.34
2022-12-11T22:21:15.857Z,98781.38
2022-12-11T22:23:43.770Z,98755.13
2022-12-11T22:26:16.922Z,98784.19
2022-12-11T22:28:43.899Z,98786.94
2022-12-11T22:31:12.526Z,98764.75
2022-12-11T22:33:40.367Z,98763.81
2022-12-11T22:36:07.905Z,98763.00
2022-12-11T22:38:35.127Z,98756.84
2022-12-11T22:41:09.522Z,98730.69
2022-12-11T22:43:36.521Z,98738.75
2022-12-11T22:46:03.791Z,98720.38
2022-12-11T22:48:31.127Z,98729.41
2022-12-11T22:50:58.132Z,98738.72
2022-12-11T22:53:25.976Z,98705.88
2022-12-11T22:55:53.545Z,98701.09
2022-12-11T22:58:22.021Z,98699.03
2022-12-11T23:00:49.345Z,98719.72
2022-12-11T23:03:16.628Z,98709.31
2022-12-11T23:05:43.720Z,98692.16
2022-12-11T23:08:10.808Z,98683.84
2022-12-11T23:10:40.594Z,98685.63
2022-12-11T23:13:07.847Z,98683.03
2022-12-11T23:15:34.939Z,98654.94
2022-12-11T23:18:01.973Z,98652.88
2022-12-11T23:20:29.391Z,98664.50
2022-12-11T23:22:56.446Z,98667.78
2022-12-11T23:25:23.471Z,98645.91
2022-12-11T23:27:50.527Z,98640.41
2022-12-11T23:30:17.511Z,98624.50
2022-12-11T23:32:44.458Z,98640.81
2022-12-11T23:35:11.763Z,98633.25
2022-12-11T23:37:39.178Z,98629.03
2022-12-11T23:40:07.001Z,98639.03
2022-12-11T23:42:34.327Z,98651.09
2022-12-11T23:45:01.287Z,98643.97
2022-12-11T23:47:28.277Z,98592.22
2022-12-11T23:49:55.311Z,98620.13
2022-12-11T23:52:23.136Z,98621.50
2022-12-11T23:54:51.423Z,98604.78
2022-12-11T23:57:18.411Z,98622.88
2022-12-11T23:59:45.371Z,98611.91
